Terminal Aerodrome Forecast
Issued by NWS Brownsville, TX

Home | Current Version | Previous Version | Text Only | Print | Product List | Glossary On
Versions: 1 2 3 4 5 6 7 8 9 10 11 12 13 14 15 16 17 18
174
FTUS44 KBRO 261226 AAA
TAFHRL
TAF AMD
KHRL 261226Z 2612/2712 16014G22KT P6SM OVC024
     FM261800 17024G32KT P6SM SCT030
     FM270300 15015KT P6SM BKN015=

USA.gov is the U.S. government's official web portal to all federal, state and local government web resources and services.